sensor_id;sensor_type;location;lat;lon;timestamp;temperature;humidity
11944;DHT22;6031;50.220;10.122;2022-08-02T00:01:43;20.20;99.90
11944;DHT22;6031;50.220;10.122;2022-08-02T00:04:09;20.30;99.90
11944;DHT22;6031;50.220;10.122;2022-08-02T00:06:35;20.40;99.90
11944;DHT22;6031;50.220;10.122;2022-08-02T00:09:02;20.30;99.90
11944;DHT22;6031;50.220;10.122;2022-08-02T00:11:27;20.30;99.90
11944;DHT22;6031;50.220;10.122;2022-08-02T00:13:53;20.30;99.90
11944;DHT22;6031;50.220;10.122;2022-08-02T00:16:19;20.30;99.90
11944;DHT22;6031;50.220;10.122;2022-08-02T00:18:44;20.20;99.90
11944;DHT22;6031;50.220;10.122;2022-08-02T00:21:10;20.20;99.90
11944;DHT22;6031;50.220;10.122;2022-08-02T00:23:35;20.20;99.90
11944;DHT22;6031;50.220;10.122;2022-08-02T00:26:01;20.20;99.90
11944;DHT22;6031;50.220;10.122;2022-08-02T00:28:27;20.10;99.90
11944;DHT22;6031;50.220;10.122;2022-08-02T00:30:52;20.10;99.90
11944;DHT22;6031;50.220;10.122;2022-08-02T00:33:18;20.10;99.90
11944;DHT22;6031;50.220;10.122;2022-08-02T00:35:44;20.00;99.90
11944;DHT22;6031;50.220;10.122;2022-08-02T00:38:13;20.00;99.90
11944;DHT22;6031;50.220;10.122;2022-08-02T00:40:39;20.00;99.90
11944;DHT22;6031;50.220;10.122;2022-08-02T00:43:10;20.00;99.90
11944;DHT22;6031;50.220;10.122;2022-08-02T00:45:38;20.00;99.90
11944;DHT22;6031;50.220;10.122;2022-08-02T00:48:05;20.10;99.90
11944;DHT22;6031;50.220;10.122;2022-08-02T00:50:31;20.10;99.90
11944;DHT22;6031;50.220;10.122;2022-08-02T00:52:58;19.90;99.90
11944;DHT22;6031;50.220;10.122;2022-08-02T00:55:24;19.80;99.90
11944;DHT22;6031;50.220;10.122;2022-08-02T00:57:49;19.80;99.90
11944;DHT22;6031;50.220;10.122;2022-08-02T01:00:15;19.70;99.90
11944;DHT22;6031;50.220;10.122;2022-08-02T01:02:41;19.60;99.90
11944;DHT22;6031;50.220;10.122;2022-08-02T01:05:07;19.50;99.90
11944;DHT22;6031;50.220;10.122;2022-08-02T01:07:33;19.50;99.90
11944;DHT22;6031;50.220;10.122;2022-08-02T01:09:58;19.30;99.90
11944;DHT22;6031;50.220;10.122;2022-08-02T01:12:27;19.20;99.90
11944;DHT22;6031;50.220;10.122;2022-08-02T01:14:57;19.00;99.90
11944;DHT22;6031;50.220;10.122;2022-08-02T01:18:00;19.00;99.90
11944;DHT22;6031;50.220;10.122;2022-08-02T01:29:17;18.70;99.90
11944;DHT22;6031;50.220;10.122;2022-08-02T01:31:57;18.60;99.90
11944;DHT22;6031;50.220;10.122;2022-08-02T01:34:34;18.50;99.90
11944;DHT22;6031;50.220;10.122;2022-08-02T01:37:15;18.50;99.90
11944;DHT22;6031;50.220;10.122;2022-08-02T01:39:43;18.60;99.90
11944;DHT22;6031;50.220;10.122;2022-08-02T01:42:11;18.60;99.90
11944;DHT22;6031;50.220;10.122;2022-08-02T01:44:40;18.50;99.90
11944;DHT22;6031;50.220;10.122;2022-08-02T01:47:09;18.40;99.90
11944;DHT22;6031;50.220;10.122;2022-08-02T01:49:39;18.30;99.90
11944;DHT22;6031;50.220;10.122;2022-08-02T01:52:06;18.40;99.90
11944;DHT22;6031;50.220;10.122;2022-08-02T01:54:49;18.30;99.90
11944;DHT22;6031;50.220;10.122;2022-08-02T01:57:17;18.20;99.90
11944;DHT22;6031;50.220;10.122;2022-08-02T01:59:46;18.00;99.90
11944;DHT22;6031;50.220;10.122;2022-08-02T02:02:14;18.00;99.90
11944;DHT22;6031;50.220;10.122;2022-08-02T02:04:41;18.10;99.90
11944;DHT22;6031;50.220;10.122;2022-08-02T02:07:09;18.10;99.90
11944;DHT22;6031;50.220;10.122;2022-08-02T02:09:37;18.00;99.90
11944;DHT22;6031;50.220;10.122;2022-08-02T02:12:04;18.10;99.90
11944;DHT22;6031;50.220;10.122;2022-08-02T02:14:32;18.10;99.90
11944;DHT22;6031;50.220;10.122;2022-08-02T02:16:59;18.20;99.90
11944;DHT22;6031;50.220;10.122;2022-08-02T02:19:25;18.30;99.90
11944;DHT22;6031;50.220;10.122;2022-08-02T02:21:51;18.30;99.90
11944;DHT22;6031;50.220;10.122;2022-08-02T02:24:17;18.30;99.90
11944;DHT22;6031;50.220;10.122;2022-08-02T02:26:43;18.30;99.90
11944;DHT22;6031;50.220;10.122;2022-08-02T02:29:10;18.20;99.90
11944;DHT22;6031;50.220;10.122;2022-08-02T02:31:39;18.10;99.90
11944;DHT22;6031;50.220;10.122;2022-08-02T02:34:24;17.90;99.90
11944;DHT22;6031;50.220;10.122;2022-08-02T02:36:51;17.60;99.90
11944;DHT22;6031;50.220;10.122;2022-08-02T02:39:20;17.50;99.90
11944;DHT22;6031;50.220;10.122;2022-08-02T02:41:48;17.50;99.90
11944;DHT22;6031;50.220;10.122;2022-08-02T02:44:17;17.50;99.90
11944;DHT22;6031;50.220;10.122;2022-08-02T02:46:44;17.50;99.90
11944;DHT22;6031;50.220;10.122;2022-08-02T02:49:10;17.70;99.90
11944;DHT22;6031;50.220;10.122;2022-08-02T02:51:39;17.90;99.90
11944;DHT22;6031;50.220;10.122;2022-08-02T02:54:08;18.00;99.90
11944;DHT22;6031;50.220;10.122;2022-08-02T02:56:37;18.00;99.90
11944;DHT22;6031;50.220;10.122;2022-08-02T02:59:03;18.00;99.90
11944;DHT22;6031;50.220;10.122;2022-08-02T03:01:30;18.00;99.90
11944;DHT22;6031;50.220;10.122;2022-08-02T03:03:58;18.10;99.90
11944;DHT22;6031;50.220;10.122;2022-08-02T03:06:24;18.30;99.90
11944;DHT22;6031;50.220;10.122;2022-08-02T03:08:50;18.30;99.90
11944;DHT22;6031;50.220;10.122;2022-08-02T03:11:16;18.20;99.90
11944;DHT22;6031;50.220;10.122;2022-08-02T03:13:42;18.20;99.90
11944;DHT22;6031;50.220;10.122;2022-08-02T03:16:09;18.20;99.90
11944;DHT22;6031;50.220;10.122;2022-08-02T03:18:37;18.30;99.90
11944;DHT22;6031;50.220;10.122;2022-08-02T03:21:05;18.30;99.90
11944;DHT22;6031;50.220;10.122;2022-08-02T03:23:32;18.40;99.90
11944;DHT22;6031;50.220;10.122;2022-08-02T03:25:58;18.40;99.90
11944;DHT22;6031;50.220;10.122;2022-08-02T03:28:24;18.40;99.90
11944;DHT22;6031;50.220;10.122;2022-08-02T03:30:50;18.40;99.90
11944;DHT22;6031;50.220;10.122;2022-08-02T03:33:18;18.30;99.90
11944;DHT22;6031;50.220;10.122;2022-08-02T03:35:44;18.10;99.90
11944;DHT22;6031;50.220;10.122;2022-08-02T03:38:12;18.10;99.90
11944;DHT22;6031;50.220;10.122;2022-08-02T03:40:39;18.00;99.90
11944;DHT22;6031;50.220;10.122;2022-08-02T03:43:06;17.90;99.90
11944;DHT22;6031;50.220;10.122;2022-08-02T03:45:33;17.80;99.90
11944;DHT22;6031;50.220;10.122;2022-08-02T03:48:00;17.70;99.90
11944;DHT22;6031;50.220;10.122;2022-08-02T03:50:25;17.70;99.90
11944;DHT22;6031;50.220;10.122;2022-08-02T03:52:52;17.80;99.90
11944;DHT22;6031;50.220;10.122;2022-08-02T03:55:18;17.90;99.90
11944;DHT22;6031;50.220;10.122;2022-08-02T03:57:43;17.90;99.90
11944;DHT22;6031;50.220;10.122;2022-08-02T04:00:11;17.80;99.90
11944;DHT22;6031;50.220;10.122;2022-08-02T04:02:37;17.80;99.90
11944;DHT22;6031;50.220;10.122;2022-08-02T04:05:03;17.80;99.90
11944;DHT22;6031;50.220;10.122;2022-08-02T04:07:29;17.80;99.90
11944;DHT22;6031;50.220;10.122;2022-08-02T04:09:54;17.90;99.90
11944;DHT22;6031;50.220;10.122;2022-08-02T04:12:20;17.80;99.90
11944;DHT22;6031;50.220;10.122;2022-08-02T04:14:46;17.70;99.90
11944;DHT22;6031;50.220;10.122;2022-08-02T04:17:12;17.80;99.90
11944;DHT22;6031;50.220;10.122;2022-08-02T04:19:49;17.80;99.90
11944;DHT22;6031;50.220;10.122;2022-08-02T04:22:38;17.70;99.90
11944;DHT22;6031;50.220;10.122;2022-08-02T04:25:06;17.60;99.90
11944;DHT22;6031;50.220;10.122;2022-08-02T04:27:34;17.60;99.90
11944;DHT22;6031;50.220;10.122;2022-08-02T04:30:03;17.50;99.90
11944;DHT22;6031;50.220;10.122;2022-08-02T04:32:30;17.50;99.90
11944;DHT22;6031;50.220;10.122;2022-08-02T04:34:56;17.40;99.90
11944;DHT22;6031;50.220;10.122;2022-08-02T04:37:22;17.40;99.90
11944;DHT22;6031;50.220;10.122;2022-08-02T04:39:48;17.50;99.90
11944;DHT22;6031;50.220;10.122;2022-08-02T04:42:21;17.60;99.90
11944;DHT22;6031;50.220;10.122;2022-08-02T04:44:48;17.80;99.90
11944;DHT22;6031;50.220;10.122;2022-08-02T04:47:14;17.80;99.90
11944;DHT22;6031;50.220;10.122;2022-08-02T04:49:39;17.90;99.90
11944;DHT22;6031;50.220;10.122;2022-08-02T04:52:05;17.90;99.90
11944;DHT22;6031;50.220;10.122;2022-08-02T04:54:30;18.10;99.90
11944;DHT22;6031;50.220;10.122;2022-08-02T04:56:56;18.30;99.90
11944;DHT22;6031;50.220;10.122;2022-08-02T04:59:21;18.40;99.90
11944;DHT22;6031;50.220;10.122;2022-08-02T05:01:47;18.50;99.90
11944;DHT22;6031;50.220;10.122;2022-08-02T05:04:13;18.50;99.90
11944;DHT22;6031;50.220;10.122;2022-08-02T05:06:38;18.60;99.90
11944;DHT22;6031;50.220;10.122;2022-08-02T05:09:04;18.80;99.90
11944;DHT22;6031;50.220;10.122;2022-08-02T05:11:29;18.80;99.90
11944;DHT22;6031;50.220;10.122;2022-08-02T05:13:55;18.90;99.90
11944;DHT22;6031;50.220;10.122;2022-08-02T05:16:20;19.10;99.90
11944;DHT22;6031;50.220;10.122;2022-08-02T05:18:46;19.10;99.90
11944;DHT22;6031;50.220;10.122;2022-08-02T05:21:12;19.30;99.90
11944;DHT22;6031;50.220;10.122;2022-08-02T05:23:37;19.50;99.90
11944;DHT22;6031;50.220;10.122;2022-08-02T05:26:03;19.50;99.90
11944;DHT22;6031;50.220;10.122;2022-08-02T05:28:28;19.70;99.90
11944;DHT22;6031;50.220;10.122;2022-08-02T05:30:54;19.70;99.90
11944;DHT22;6031;50.220;10.122;2022-08-02T05:33:19;19.80;99.90
11944;DHT22;6031;50.220;10.122;2022-08-02T05:35:45;19.80;99.90
11944;DHT22;6031;50.220;10.122;2022-08-02T05:38:10;19.80;99.90
11944;DHT22;6031;50.220;10.122;2022-08-02T05:40:37;19.80;99.90
11944;DHT22;6031;50.220;10.122;2022-08-02T05:43:13;19.90;99.90
11944;DHT22;6031;50.220;10.122;2022-08-02T05:45:39;20.00;99.90
11944;DHT22;6031;50.220;10.122;2022-08-02T05:48:05;20.10;99.90
11944;DHT22;6031;50.220;10.122;2022-08-02T05:50:32;20.20;99.90
11944;DHT22;6031;50.220;10.122;2022-08-02T05:53:09;20.40;99.90
11944;DHT22;6031;50.220;10.122;2022-08-02T05:55:46;20.60;99.90
11944;DHT22;6031;50.220;10.122;2022-08-02T05:58:19;20.70;99.90
11944;DHT22;6031;50.220;10.122;2022-08-02T06:00:48;20.90;99.90
11944;DHT22;6031;50.220;10.122;2022-08-02T06:05:57;21.50;99.90
11944;DHT22;6031;50.220;10.122;2022-08-02T06:08:32;22.50;99.90
11944;DHT22;6031;50.220;10.122;2022-08-02T06:11:02;23.60;99.90
11944;DHT22;6031;50.220;10.122;2022-08-02T06:13:30;24.50;99.90
11944;DHT22;6031;50.220;10.122;2022-08-02T06:15:56;25.30;99.90
11944;DHT22;6031;50.220;10.122;2022-08-02T06:18:25;26.10;99.90
11944;DHT22;6031;50.220;10.122;2022-08-02T06:20:51;27.30;99.90
11944;DHT22;6031;50.220;10.122;2022-08-02T06:23:20;27.80;99.90
11944;DHT22;6031;50.220;10.122;2022-08-02T06:25:49;28.40;99.90
11944;DHT22;6031;50.220;10.122;2022-08-02T06:28:15;28.60;99.90
11944;DHT22;6031;50.220;10.122;2022-08-02T06:30:42;28.20;99.90
11944;DHT22;6031;50.220;10.122;2022-08-02T06:33:08;28.20;99.90
11944;DHT22;6031;50.220;10.122;2022-08-02T06:38:14;28.00;99.90
11944;DHT22;6031;50.220;10.122;2022-08-02T06:43:24;28.10;99.90
11944;DHT22;6031;50.220;10.122;2022-08-02T06:45:51;28.20;99.90
11944;DHT22;6031;50.220;10.122;2022-08-02T06:48:16;28.50;99.90
11944;DHT22;6031;50.220;10.122;2022-08-02T06:50:42;28.50;99.90
11944;DHT22;6031;50.220;10.122;2022-08-02T06:53:08;28.60;99.90
11944;DHT22;6031;50.220;10.122;2022-08-02T06:55:34;28.60;99.90
11944;DHT22;6031;50.220;10.122;2022-08-02T06:58:00;29.10;99.90
11944;DHT22;6031;50.220;10.122;2022-08-02T07:00:28;29.80;99.90
11944;DHT22;6031;50.220;10.122;2022-08-02T07:02:54;29.50;99.90
11944;DHT22;6031;50.220;10.122;2022-08-02T07:05:20;30.20;99.90
11944;DHT22;6031;50.220;10.122;2022-08-02T07:07:46;30.90;98.80
11944;DHT22;6031;50.220;10.122;2022-08-02T07:10:12;31.50;97.50
11944;DHT22;6031;50.220;10.122;2022-08-02T07:12:38;31.10;98.00
11944;DHT22;6031;50.220;10.122;2022-08-02T07:15:06;30.20;98.50
11944;DHT22;6031;50.220;10.122;2022-08-02T07:17:33;29.30;99.20
11944;DHT22;6031;50.220;10.122;2022-08-02T07:20:00;29.90;99.10
11944;DHT22;6031;50.220;10.122;2022-08-02T07:22:26;30.30;98.90
11944;DHT22;6031;50.220;10.122;2022-08-02T07:24:53;31.60;97.20
11944;DHT22;6031;50.220;10.122;2022-08-02T07:27:20;32.50;96.20
11944;DHT22;6031;50.220;10.122;2022-08-02T07:29:46;32.60;95.10
11944;DHT22;6031;50.220;10.122;2022-08-02T07:32:12;31.50;96.30
11944;DHT22;6031;50.220;10.122;2022-08-02T07:34:37;32.70;95.20
11944;DHT22;6031;50.220;10.122;2022-08-02T07:37:03;33.70;93.70
11944;DHT22;6031;50.220;10.122;2022-08-02T07:39:28;33.60;92.80
11944;DHT22;6031;50.220;10.122;2022-08-02T07:41:54;33.30;92.30
11944;DHT22;6031;50.220;10.122;2022-08-02T07:44:19;33.70;91.40
11944;DHT22;6031;50.220;10.122;2022-08-02T07:46:46;33.20;91.90
11944;DHT22;6031;50.220;10.122;2022-08-02T07:49:12;33.70;91.50
11944;DHT22;6031;50.220;10.122;2022-08-02T07:51:45;34.60;90.50
11944;DHT22;6031;50.220;10.122;2022-08-02T07:54:11;34.40;88.90
11944;DHT22;6031;50.220;10.122;2022-08-02T07:56:36;34.40;88.70
11944;DHT22;6031;50.220;10.122;2022-08-02T07:59:03;34.30;85.50
11944;DHT22;6031;50.220;10.122;2022-08-02T08:01:29;34.60;85.00
11944;DHT22;6031;50.220;10.122;2022-08-02T08:03:55;34.30;84.90
11944;DHT22;6031;50.220;10.122;2022-08-02T08:06:20;35.00;83.40
11944;DHT22;6031;50.220;10.122;2022-08-02T08:08:46;35.50;80.80
11944;DHT22;6031;50.220;10.122;2022-08-02T08:11:12;35.40;80.40
11944;DHT22;6031;50.220;10.122;2022-08-02T08:13:37;35.40;79.80
11944;DHT22;6031;50.220;10.122;2022-08-02T08:16:03;36.10;78.90
11944;DHT22;6031;50.220;10.122;2022-08-02T08:18:29;35.60;77.40
11944;DHT22;6031;50.220;10.122;2022-08-02T08:20:55;35.70;77.10
11944;DHT22;6031;50.220;10.122;2022-08-02T08:23:20;35.70;77.00
11944;DHT22;6031;50.220;10.122;2022-08-02T08:25:46;36.10;76.10
11944;DHT22;6031;50.220;10.122;2022-08-02T08:28:12;35.90;77.00
11944;DHT22;6031;50.220;10.122;2022-08-02T08:30:39;35.80;76.20
11944;DHT22;6031;50.220;10.122;2022-08-02T08:33:04;36.50;74.50
11944;DHT22;6031;50.220;10.122;2022-08-02T08:35:30;37.30;72.40
11944;DHT22;6031;50.220;10.122;2022-08-02T08:37:55;37.30;70.80
11944;DHT22;6031;50.220;10.122;2022-08-02T08:40:24;37.40;70.90
11944;DHT22;6031;50.220;10.122;2022-08-02T08:42:50;38.00;69.50
11944;DHT22;6031;50.220;10.122;2022-08-02T08:45:15;38.30;65.40
11944;DHT22;6031;50.220;10.122;2022-08-02T08:47:43;38.50;65.00
11944;DHT22;6031;50.220;10.122;2022-08-02T08:50:17;38.20;63.90
11944;DHT22;6031;50.220;10.122;2022-08-02T08:52:59;37.90;64.80
11944;DHT22;6031;50.220;10.122;2022-08-02T08:55:26;38.10;64.90
11944;DHT22;6031;50.220;10.122;2022-08-02T08:57:54;38.40;64.20
11944;DHT22;6031;50.220;10.122;2022-08-02T09:00:20;38.80;61.60
11944;DHT22;6031;50.220;10.122;2022-08-02T09:02:46;36.50;64.10
11944;DHT22;6031;50.220;10.122;2022-08-02T09:05:14;36.30;64.60
11944;DHT22;6031;50.220;10.122;2022-08-02T09:07:41;37.30;61.70
11944;DHT22;6031;50.220;10.122;2022-08-02T09:10:35;37.40;61.80
11944;DHT22;6031;50.220;10.122;2022-08-02T09:15:38;36.00;60.90
11944;DHT22;6031;50.220;10.122;2022-08-02T09:18:05;35.20;60.00
11944;DHT22;6031;50.220;10.122;2022-08-02T09:20:33;35.90;60.60
11944;DHT22;6031;50.220;10.122;2022-08-02T09:23:07;36.30;61.20
11944;DHT22;6031;50.220;10.122;2022-08-02T09:25:33;36.40;60.30
11944;DHT22;6031;50.220;10.122;2022-08-02T09:27:59;36.20;60.70
11944;DHT22;6031;50.220;10.122;2022-08-02T09:30:27;36.60;60.50
11944;DHT22;6031;50.220;10.122;2022-08-02T09:32:53;35.80;59.90
11944;DHT22;6031;50.220;10.122;2022-08-02T09:35:33;36.20;58.30
11944;DHT22;6031;50.220;10.122;2022-08-02T09:38:08;37.30;57.60
11944;DHT22;6031;50.220;10.122;2022-08-02T09:40:35;38.00;57.40
11944;DHT22;6031;50.220;10.122;2022-08-02T09:43:01;37.40;58.30
11944;DHT22;6031;50.220;10.122;2022-08-02T09:45:31;37.40;58.30
11944;DHT22;6031;50.220;10.122;2022-08-02T09:48:09;37.50;58.40
11944;DHT22;6031;50.220;10.122;2022-08-02T09:50:39;36.70;58.70
11944;DHT22;6031;50.220;10.122;2022-08-02T09:53:10;35.70;59.60
11944;DHT22;6031;50.220;10.122;2022-08-02T09:55:37;35.60;60.30
11944;DHT22;6031;50.220;10.122;2022-08-02T09:58:21;37.00;58.50
11944;DHT22;6031;50.220;10.122;2022-08-02T10:00:54;37.90;57.10
11944;DHT22;6031;50.220;10.122;2022-08-02T10:03:19;36.90;57.50
11944;DHT22;6031;50.220;10.122;2022-08-02T10:08:14;37.80;56.00
11944;DHT22;6031;50.220;10.122;2022-08-02T10:10:41;37.40;56.20
11944;DHT22;6031;50.220;10.122;2022-08-02T10:13:08;37.00;56.90
11944;DHT22;6031;50.220;10.122;2022-08-02T10:15:35;35.20;58.80
11944;DHT22;6031;50.220;10.122;2022-08-02T10:18:00;36.10;58.00
11944;DHT22;6031;50.220;10.122;2022-08-02T10:20:27;37.40;57.00
11944;DHT22;6031;50.220;10.122;2022-08-02T10:22:54;38.30;55.50
11944;DHT22;6031;50.220;10.122;2022-08-02T10:25:21;38.70;54.90
11944;DHT22;6031;50.220;10.122;2022-08-02T10:27:48;38.10;55.00
11944;DHT22;6031;50.220;10.122;2022-08-02T10:30:14;38.30;55.10
11944;DHT22;6031;50.220;10.122;2022-08-02T10:32:42;39.40;54.10
11944;DHT22;6031;50.220;10.122;2022-08-02T10:35:13;38.30;54.20
11944;DHT22;6031;50.220;10.122;2022-08-02T10:37:40;36.10;56.70
11944;DHT22;6031;50.220;10.122;2022-08-02T10:40:09;34.40;58.80
11944;DHT22;6031;50.220;10.122;2022-08-02T10:42:51;35.50;57.60
11944;DHT22;6031;50.220;10.122;2022-08-02T10:45:19;36.70;55.80
11944;DHT22;6031;50.220;10.122;2022-08-02T10:48:12;36.80;55.70
11944;DHT22;6031;50.220;10.122;2022-08-02T10:53:22;37.90;54.30
11944;DHT22;6031;50.220;10.122;2022-08-02T10:55:49;37.40;55.50
11944;DHT22;6031;50.220;10.122;2022-08-02T10:58:16;36.30;56.00
11944;DHT22;6031;50.220;10.122;2022-08-02T11:00:43;37.00;55.60
11944;DHT22;6031;50.220;10.122;2022-08-02T11:03:33;38.50;54.80
11944;DHT22;6031;50.220;10.122;2022-08-02T11:08:28;37.90;53.40
11944;DHT22;6031;50.220;10.122;2022-08-02T11:10:58;37.70;53.90
11944;DHT22;6031;50.220;10.122;2022-08-02T11:13:25;38.30;53.10
11944;DHT22;6031;50.220;10.122;2022-08-02T11:16:02;37.50;53.40
11944;DHT22;6031;50.220;10.122;2022-08-02T11:21:25;38.90;52.30
11944;DHT22;6031;50.220;10.122;2022-08-02T11:23:51;39.80;51.80
11944;DHT22;6031;50.220;10.122;2022-08-02T11:28:55;40.00;50.10
11944;DHT22;6031;50.220;10.122;2022-08-02T11:31:21;39.50;50.00
11944;DHT22;6031;50.220;10.122;2022-08-02T11:33:50;38.90;51.80
11944;DHT22;6031;50.220;10.122;2022-08-02T11:36:16;39.20;51.00
11944;DHT22;6031;50.220;10.122;2022-08-02T11:38:42;38.60;51.00
11944;DHT22;6031;50.220;10.122;2022-08-02T11:41:09;38.40;50.60
11944;DHT22;6031;50.220;10.122;2022-08-02T11:43:42;36.10;51.60
11944;DHT22;6031;50.220;10.122;2022-08-02T11:46:13;36.30;52.70
11944;DHT22;6031;50.220;10.122;2022-08-02T11:48:40;37.70;52.20
11944;DHT22;6031;50.220;10.122;2022-08-02T11:51:14;37.50;51.40
11944;DHT22;6031;50.220;10.122;2022-08-02T11:53:53;38.90;50.50
11944;DHT22;6031;50.220;10.122;2022-08-02T11:56:26;39.50;50.60
11944;DHT22;6031;50.220;10.122;2022-08-02T11:59:09;39.40;50.60
11944;DHT22;6031;50.220;10.122;2022-08-02T12:01:37;40.00;49.30
11944;DHT22;6031;50.220;10.122;2022-08-02T12:04:04;40.20;49.10
11944;DHT22;6031;50.220;10.122;2022-08-02T12:06:31;39.30;49.40
11944;DHT22;6031;50.220;10.122;2022-08-02T12:09:04;38.80;49.70
11944;DHT22;6031;50.220;10.122;2022-08-02T12:11:31;38.80;49.80
11944;DHT22;6031;50.220;10.122;2022-08-02T12:13:57;37.70;50.90
11944;DHT22;6031;50.220;10.122;2022-08-02T12:16:23;38.40;50.20
11944;DHT22;6031;50.220;10.122;2022-08-02T12:19:08;38.30;50.10
11944;DHT22;6031;50.220;10.122;2022-08-02T12:21:43;38.40;50.20
11944;DHT22;6031;50.220;10.122;2022-08-02T12:24:09;39.00;49.60
11944;DHT22;6031;50.220;10.122;2022-08-02T12:26:42;38.00;49.70
11944;DHT22;6031;50.220;10.122;2022-08-02T12:29:09;38.20;50.00
11944;DHT22;6031;50.220;10.122;2022-08-02T12:31:46;39.00;49.60
11944;DHT22;6031;50.220;10.122;2022-08-02T12:34:14;37.10;50.40
11944;DHT22;6031;50.220;10.122;2022-08-02T12:42:09;36.70;49.40
11944;DHT22;6031;50.220;10.122;2022-08-02T12:44:37;35.30;51.00
11944;DHT22;6031;50.220;10.122;2022-08-02T12:47:08;36.80;50.20
11944;DHT22;6031;50.220;10.122;2022-08-02T12:49:36;36.80;50.30
11944;DHT22;6031;50.220;10.122;2022-08-02T12:52:21;37.10;50.00
11944;DHT22;6031;50.220;10.122;2022-08-02T12:54:47;37.40;50.10
11944;DHT22;6031;50.220;10.122;2022-08-02T12:57:17;37.80;49.70
11944;DHT22;6031;50.220;10.122;2022-08-02T12:59:49;37.50;48.90
11944;DHT22;6031;50.220;10.122;2022-08-02T13:02:15;37.60;49.00
11944;DHT22;6031;50.220;10.122;2022-08-02T13:04:42;37.70;49.10
11944;DHT22;6031;50.220;10.122;2022-08-02T13:07:08;37.20;50.00
11944;DHT22;6031;50.220;10.122;2022-08-02T13:09:40;36.60;50.40
11944;DHT22;6031;50.220;10.122;2022-08-02T13:12:07;36.40;50.30
11944;DHT22;6031;50.220;10.122;2022-08-02T13:14:33;36.80;50.40
11944;DHT22;6031;50.220;10.122;2022-08-02T13:16:59;36.60;50.90
11944;DHT22;6031;50.220;10.122;2022-08-02T13:19:25;36.70;51.10
11944;DHT22;6031;50.220;10.122;2022-08-02T13:21:51;36.70;51.00
11944;DHT22;6031;50.220;10.122;2022-08-02T13:24:17;37.00;51.10
11944;DHT22;6031;50.220;10.122;2022-08-02T13:26:43;37.50;50.00
11944;DHT22;6031;50.220;10.122;2022-08-02T13:29:12;38.00;49.90
11944;DHT22;6031;50.220;10.122;2022-08-02T13:31:38;36.70;50.10
11944;DHT22;6031;50.220;10.122;2022-08-02T13:34:05;36.30;51.20
11944;DHT22;6031;50.220;10.122;2022-08-02T13:36:31;36.70;51.10
11944;DHT22;6031;50.220;10.122;2022-08-02T13:38:57;36.90;50.80
11944;DHT22;6031;50.220;10.122;2022-08-02T13:41:23;36.80;50.90
11944;DHT22;6031;50.220;10.122;2022-08-02T13:43:48;37.00;50.60
11944;DHT22;6031;50.220;10.122;2022-08-02T13:46:14;36.50;50.00
11944;DHT22;6031;50.220;10.122;2022-08-02T13:48:40;36.60;50.40
11944;DHT22;6031;50.220;10.122;2022-08-02T13:51:05;36.30;50.30
11944;DHT22;6031;50.220;10.122;2022-08-02T13:53:39;36.30;50.10
11944;DHT22;6031;50.220;10.122;2022-08-02T13:56:05;36.30;50.30
11944;DHT22;6031;50.220;10.122;2022-08-02T13:58:31;36.60;50.50
11944;DHT22;6031;50.220;10.122;2022-08-02T14:00:56;36.80;50.20
11944;DHT22;6031;50.220;10.122;2022-08-02T14:03:22;37.00;48.70
11944;DHT22;6031;50.220;10.122;2022-08-02T14:05:47;36.30;49.00
11944;DHT22;6031;50.220;10.122;2022-08-02T14:08:14;36.50;48.60
11944;DHT22;6031;50.220;10.122;2022-08-02T14:10:40;36.50;48.00
11944;DHT22;6031;50.220;10.122;2022-08-02T14:13:06;36.00;49.00
11944;DHT22;6031;50.220;10.122;2022-08-02T14:15:32;35.10;49.60
11944;DHT22;6031;50.220;10.122;2022-08-02T14:17:57;33.80;50.60
11944;DHT22;6031;50.220;10.122;2022-08-02T14:20:23;33.70;51.70
11944;DHT22;6031;50.220;10.122;2022-08-02T14:22:48;33.90;52.30
11944;DHT22;6031;50.220;10.122;2022-08-02T14:25:14;33.80;51.80
11944;DHT22;6031;50.220;10.122;2022-08-02T14:27:39;33.80;51.80
11944;DHT22;6031;50.220;10.122;2022-08-02T14:30:05;33.50;51.70
11944;DHT22;6031;50.220;10.122;2022-08-02T14:32:31;33.90;51.90
11944;DHT22;6031;50.220;10.122;2022-08-02T14:34:56;34.80;50.70
11944;DHT22;6031;50.220;10.122;2022-08-02T14:37:22;34.90;50.60
11944;DHT22;6031;50.220;10.122;2022-08-02T14:39:47;34.80;51.30
11944;DHT22;6031;50.220;10.122;2022-08-02T14:42:13;34.80;51.30
11944;DHT22;6031;50.220;10.122;2022-08-02T14:44:38;35.40;51.00
11944;DHT22;6031;50.220;10.122;2022-08-02T14:47:04;35.40;50.60
11944;DHT22;6031;50.220;10.122;2022-08-02T14:49:34;35.30;50.30
11944;DHT22;6031;50.220;10.122;2022-08-02T14:51:59;35.40;51.10
11944;DHT22;6031;50.220;10.122;2022-08-02T14:54:25;35.40;50.40
11944;DHT22;6031;50.220;10.122;2022-08-02T14:56:53;35.00;50.90
11944;DHT22;6031;50.220;10.122;2022-08-02T14:59:19;35.20;50.60
11944;DHT22;6031;50.220;10.122;2022-08-02T15:01:44;35.40;49.90
11944;DHT22;6031;50.220;10.122;2022-08-02T15:04:10;35.50;49.70
11944;DHT22;6031;50.220;10.122;2022-08-02T15:06:35;35.30;49.40
11944;DHT22;6031;50.220;10.122;2022-08-02T15:09:01;34.90;49.50
11944;DHT22;6031;50.220;10.122;2022-08-02T15:11:27;35.10;49.90
11944;DHT22;6031;50.220;10.122;2022-08-02T15:13:52;34.90;49.00
11944;DHT22;6031;50.220;10.122;2022-08-02T15:16:18;34.80;49.00
11944;DHT22;6031;50.220;10.122;2022-08-02T15:18:43;34.30;49.20
11944;DHT22;6031;50.220;10.122;2022-08-02T15:21:09;33.60;50.30
11944;DHT22;6031;50.220;10.122;2022-08-02T15:23:35;33.40;50.40
11944;DHT22;6031;50.220;10.122;2022-08-02T15:26:01;32.80;51.10
11944;DHT22;6031;50.220;10.122;2022-08-02T15:28:27;32.60;51.40
11944;DHT22;6031;50.220;10.122;2022-08-02T15:30:54;32.60;51.80
11944;DHT22;6031;50.220;10.122;2022-08-02T15:33:20;32.60;51.50
11944;DHT22;6031;50.220;10.122;2022-08-02T15:35:45;32.60;51.30
11944;DHT22;6031;50.220;10.122;2022-08-02T15:38:11;32.50;51.40
11944;DHT22;6031;50.220;10.122;2022-08-02T15:40:36;32.60;51.40
11944;DHT22;6031;50.220;10.122;2022-08-02T15:43:02;32.50;51.80
11944;DHT22;6031;50.220;10.122;2022-08-02T15:45:27;32.00;52.00
11944;DHT22;6031;50.220;10.122;2022-08-02T15:47:53;31.80;52.60
11944;DHT22;6031;50.220;10.122;2022-08-02T15:50:19;31.90;53.10
11944;DHT22;6031;50.220;10.122;2022-08-02T15:52:45;32.00;52.20
11944;DHT22;6031;50.220;10.122;2022-08-02T15:55:11;31.90;52.50
11944;DHT22;6031;50.220;10.122;2022-08-02T15:57:36;31.80;52.70
11944;DHT22;6031;50.220;10.122;2022-08-02T16:00:03;31.80;52.60
11944;DHT22;6031;50.220;10.122;2022-08-02T16:02:29;31.90;52.50
11944;DHT22;6031;50.220;10.122;2022-08-02T16:04:54;32.00;52.60
11944;DHT22;6031;50.220;10.122;2022-08-02T16:07:20;31.90;52.20
11944;DHT22;6031;50.220;10.122;2022-08-02T16:09:45;31.80;52.50
11944;DHT22;6031;50.220;10.122;2022-08-02T16:12:11;31.80;53.10